Time;durP1;ratioP1;P1;durP2;ratioP2;P2;SDS_P1;SDS_P2;PMS_P1;PMS_P2;Temp;Humidity;BMP_temperature;BMP_pressure;BME280_temperature;BME280_humidity;BME280_pressure;Samples;Min_cycle;Max_cycle;Signal;HPM_P1;HPM_P2
2023/09/02 18:30:09;;;;;;;;;;;;;;;29.08;38.61;99193.97;4547194;22;19920;-79
2023/09/02 18:32:34;;;;;;;;;;;;;;;28.99;38.99;99188.91;5548199;22;19920;-88
2023/09/02 18:35:00;;;;;;;;;;;;;;;28.99;39.33;99196.16;5296350;23;19956;-82
2023/09/02 18:37:26;;;;;;;;;;;;;;;29.00;39.24;99195.94;5038324;28;20375;-78
2023/09/02 18:39:51;;;;;;;;;;;;;;;28.98;39.98;99199.88;5054288;28;19919;-75
2023/09/02 18:42:17;;;;;;;;;;;;;;;28.99;40.04;99207.72;5052830;28;20370;-74
2023/09/02 18:44:42;;;;;;;;;;;;;;;29.00;39.43;99205.84;5051993;28;19963;-75
2023/09/02 18:47:07;;;;;;;;;;;;;;;28.98;40.00;99208.75;5019161;28;19913;-78
2023/09/02 18:49:33;;;;;;;;;;;;;;;28.98;39.87;99208.75;5035762;28;19912;-78
2023/09/02 18:51:58;;;;;;;;;;;;;;;28.97;39.61;99209.84;5035914;28;19913;-73
2023/09/02 18:54:23;;;;;;;;;;;;;;;28.98;39.61;99211.44;5035703;28;19935;-77
2023/09/02 18:56:49;;;;;;;;;;;;;;;28.95;40.02;99217.28;5035936;28;20395;-76
2023/09/02 18:59:14;;;;;;;;;;;;;;;28.84;40.23;99221.56;5049503;28;19912;-73
2023/09/02 19:01:40;;;;;;;;;;;;;;;28.80;40.45;99217.66;5038335;28;20253;-74
2023/09/02 19:04:05;;;;;;;;;;;;;;;28.77;40.71;99222.69;5028153;28;19917;-72
2023/09/02 19:06:33;;;;;;;;;;;;;;;28.74;43.41;99223.94;5041707;28;19923;-73
2023/09/02 19:08:58;;;;;;;;;;;;;;;28.77;43.75;99226.19;5041465;28;19923;-73
2023/09/02 19:11:24;;;;;;;;;;;;;;;28.73;43.13;99227.66;5045900;28;19912;-73
2023/09/02 19:13:49;;;;;;;;;;;;;;;28.75;42.85;99219.38;5039665;28;19949;-74
2023/09/02 19:16:14;;;;;;;;;;;;;;;28.74;42.78;99228.50;5025618;28;19913;-73
2023/09/02 19:18:40;;;;;;;;;;;;;;;28.72;42.58;99227.88;5000760;28;19972;-77
2023/09/02 19:21:06;;;;;;;;;;;;;;;28.67;42.75;99229.38;4995053;28;19921;-77
2023/09/02 19:23:35;;;;;;;;;;;;;;;28.66;42.54;99226.94;5011822;28;20304;-77
2023/09/02 19:26:00;;;;;;;;;;;;;;;28.63;42.75;99227.38;5011198;28;19983;-76
2023/09/02 19:28:27;;;;;;;;;;;;;;;28.65;42.97;99230.66;5011701;28;19909;-77
2023/09/02 19:30:53;;;;;;;;;;;;;;;28.65;42.90;99230.66;5012498;28;20339;-74
2023/09/02 19:33:19;;;;;;;;;;;;;;;28.62;42.92;99234.63;5012035;28;19919;-76
2023/09/02 19:35:44;;;;;;;;;;;;;;;28.58;42.94;99235.28;5022148;28;19917;-81
2023/09/02 19:38:11;;;;;;;;;;;;;;;28.53;42.93;99238.59;5001240;28;19921;-75
2023/09/02 19:40:37;;;;;;;;;;;;;;;28.50;43.40;99244.41;5001175;28;19917;-80
2023/09/02 19:43:04;;;;;;;;;;;;;;;28.43;43.55;99232.91;5005766;28;19917;-82
2023/09/02 19:45:29;;;;;;;;;;;;;;;28.36;43.60;99243.72;5021506;28;20399;-82
2023/09/02 19:47:54;;;;;;;;;;;;;;;28.26;43.93;99238.00;5006955;28;19917;-84
2023/09/02 19:50:21;;;;;;;;;;;;;;;28.20;44.10;99244.28;5031707;28;20311;-81
2023/09/02 19:52:46;;;;;;;;;;;;;;;28.14;44.34;99240.59;5013566;28;19920;-82
2023/09/02 19:55:11;;;;;;;;;;;;;;;28.08;44.41;99242.28;5014622;28;19940;-84
2023/09/02 19:57:37;;;;;;;;;;;;;;;28.03;44.52;99234.09;5030738;28;19913;-83
2023/09/02 20:00:02;;;;;;;;;;;;;;;28.00;44.75;99241.75;5013869;28;20433;-80
2023/09/02 20:02:29;;;;;;;;;;;;;;;27.94;45.07;99243.41;5016505;28;19913;-82
2023/09/02 20:04:56;;;;;;;;;;;;;;;27.88;45.19;99250.47;5016239;28;19919;-82
2023/09/02 20:07:21;;;;;;;;;;;;;;;27.85;45.53;99248.22;5031892;28;19913;-77
2023/09/02 20:09:47;;;;;;;;;;;;;;;27.79;45.45;99243.72;5031300;28;20004;-78
2023/09/02 20:12:12;;;;;;;;;;;;;;;27.75;45.50;99246.03;5014316;28;19939;-76
2023/09/02 20:14:37;;;;;;;;;;;;;;;27.71;45.68;99242.13;5014748;28;20011;-77
2023/09/02 20:17:03;;;;;;;;;;;;;;;27.68;45.97;99245.25;4997873;28;19913;-77
2023/09/02 20:19:29;;;;;;;;;;;;;;;27.65;45.96;99244.88;5014844;28;20388;-76
2023/09/02 20:21:54;;;;;;;;;;;;;;;27.62;46.14;99241.56;5014713;28;19913;-75
2023/09/02 20:24:29;;;;;;;;;;;;;;;27.60;46.42;99242.81;5032326;28;20395;-77
2023/09/02 20:26:54;;;;;;;;;;;;;;;27.55;46.50;99234.63;5031031;28;19920;-77
2023/09/02 20:29:24;;;;;;;;;;;;;;;27.53;46.72;99247.41;4998300;28;19917;-77
2023/09/02 20:31:50;;;;;;;;;;;;;;;27.51;46.90;99246.78;5030797;28;19913;-78
2023/09/02 20:34:17;;;;;;;;;;;;;;;27.45;46.93;99232.38;5032306;28;19921;-78
2023/09/02 20:36:43;;;;;;;;;;;;;;;27.43;47.35;99239.81;5014991;28;19913;-79
2023/09/02 20:39:08;;;;;;;;;;;;;;;27.39;47.46;99233.22;5014362;28;19920;-79
2023/09/02 20:41:39;;;;;;;;;;;;;;;27.37;47.60;99240.69;5014784;28;19919;-79
2023/09/02 20:44:04;;;;;;;;;;;;;;;27.35;47.72;99242.75;5031037;28;19913;-78
2023/09/02 20:46:30;;;;;;;;;;;;;;;27.31;48.16;99238.84;5014330;28;20036;-78
2023/09/02 20:48:55;;;;;;;;;;;;;;;27.29;48.27;99235.53;5014607;28;19913;-78
2023/09/02 20:51:20;;;;;;;;;;;;;;;27.25;48.13;99238.66;5014747;28;19923;-77
2023/09/02 20:53:46;;;;;;;;;;;;;;;27.22;48.38;99232.91;5014646;28;19917;-79
2023/09/02 20:56:12;;;;;;;;;;;;;;;27.19;48.48;99234.13;5031076;28;19963;-78
2023/09/02 20:58:37;;;;;;;;;;;;;;;27.18;48.46;99232.47;5031303;28;20353;-78
2023/09/02 21:01:03;;;;;;;;;;;;;;;27.16;48.98;99228.41;5014468;28;19917;-80
2023/09/02 21:03:29;;;;;;;;;;;;;;;27.14;48.88;99225.94;5014664;28;19913;-79
2023/09/02 21:05:54;;;;;;;;;;;;;;;27.11;49.13;99229.03;5014828;28;20388;-77
2023/09/02 21:08:20;;;;;;;;;;;;;;;27.08;49.36;99214.19;5032744;28;20372;-78
2023/09/02 21:10:45;;;;;;;;;;;;;;;27.03;49.29;99223.91;5035913;28;19913;-78
2023/09/02 21:13:11;;;;;;;;;;;;;;;27.02;49.64;99222.25;5001565;28;20011;-78
2023/09/02 21:15:36;;;;;;;;;;;;;;;27.00;49.47;99224.34;5017882;28;20034;-79
2023/09/02 21:18:02;;;;;;;;;;;;;;;26.97;49.53;99222.91;5001391;28;20375;-78
2023/09/02 21:20:27;;;;;;;;;;;;;;;26.96;49.62;99223.91;5017463;28;19920;-79
2023/09/02 21:22:53;;;;;;;;;;;;;;;26.94;49.80;99219.81;5034576;28;20361;-77
2023/09/02 21:25:18;;;;;;;;;;;;;;;26.90;50.06;99220.25;5017603;28;19917;-78
2023/09/02 21:27:45;;;;;;;;;;;;;;;26.88;49.93;99221.47;5017878;28;20392;-79
2023/09/02 21:30:10;;;;;;;;;;;;;;;26.84;50.13;99215.72;5017528;28;20008;-77
2023/09/02 21:32:38;;;;;;;;;;;;;;;26.82;50.41;99222.31;5017789;28;19948;-78
2023/09/02 21:35:03;;;;;;;;;;;;;;;26.80;50.24;99227.06;5017359;28;19932;-79
2023/09/02 21:37:29;;;;;;;;;;;;;;;26.77;50.18;99224.81;5034387;28;19995;-77
2023/09/02 21:39:55;;;;;;;;;;;;;;;26.76;50.42;99225.84;5034489;28;19917;-79
2023/09/02 21:42:21;;;;;;;;;;;;;;;26.73;50.27;99224.44;5018022;28;19921;-81
2023/09/02 21:44:52;;;;;;;;;;;;;;;26.70;50.33;99224.84;5038502;28;19913;-78
2023/09/02 21:47:17;;;;;;;;;;;;;;;26.67;50.61;99228.75;5023304;28;20300;-77
2023/09/02 21:49:45;;;;;;;;;;;;;;;26.64;50.70;99225.66;5001771;28;19913;-77
2023/09/02 21:52:10;;;;;;;;;;;;;;;26.63;50.87;99226.69;5000963;28;19921;-77
2023/09/02 21:54:35;;;;;;;;;;;;;;;26.59;51.05;99228.97;5034301;28;20003;-77
2023/09/02 21:57:00;;;;;;;;;;;;;;;26.58;50.96;99231.84;5017374;28;19913;-78
2023/09/02 21:59:27;;;;;;;;;;;;;;;26.55;51.20;99230.41;5018031;28;19913;-77
2023/09/02 22:01:53;;;;;;;;;;;;;;;26.49;50.98;99234.75;5033567;28;20394;-77
2023/09/02 22:04:18;;;;;;;;;;;;;;;26.47;51.21;99235.97;5033458;28;19913;-77
2023/09/02 22:06:43;;;;;;;;;;;;;;;26.44;51.39;99237.22;5000650;28;20003;-77
2023/09/02 22:09:09;;;;;;;;;;;;;;;26.43;51.14;99230.22;5033409;28;19964;-76
2023/09/02 22:11:34;;;;;;;;;;;;;;;26.40;51.54;99227.97;5016708;28;19927;-77
2023/09/02 22:13:59;;;;;;;;;;;;;;;26.38;51.62;99227.34;5016424;28;20351;-77
2023/09/02 22:16:25;;;;;;;;;;;;;;;26.37;51.43;99228.38;5016802;28;19913;-77
2023/09/02 22:18:50;;;;;;;;;;;;;;;26.34;51.47;99221.56;5016601;28;19987;-77
2023/09/02 22:21:15;;;;;;;;;;;;;;;26.31;51.65;99215.81;5016800;28;19913;-77
2023/09/02 22:23:41;;;;;;;;;;;;;;;26.28;51.97;99217.09;5032783;28;19913;-77
2023/09/02 22:26:06;;;;;;;;;;;;;;;26.27;51.96;99219.97;5033706;28;19924;-77
2023/09/02 22:28:33;;;;;;;;;;;;;;;26.23;52.06;99216.03;5032849;28;19913;-77
2023/09/02 22:30:58;;;;;;;;;;;;;;;26.21;51.85;99216.25;5033270;28;19967;-77
2023/09/02 22:33:23;;;;;;;;;;;;;;;26.18;51.93;99209.44;5016277;28;19916;-77
2023/09/02 22:35:50;;;;;;;;;;;;;;;26.12;52.17;99204.91;5016196;28;19921;-77
2023/09/02 22:38:16;;;;;;;;;;;;;;;26.09;52.13;99207.19;5032685;28;20423;-77
2023/09/02 22:40:41;;;;;;;;;;;;;;;26.06;52.26;99200.44;5032802;28;19913;-77
2023/09/02 22:43:06;;;;;;;;;;;;;;;26.03;51.89;99200.00;5032259;28;19920;-77
2023/09/02 22:45:34;;;;;;;;;;;;;;;26.00;52.12;99206.59;5033053;28;19936;-76
2023/09/02 22:47:59;;;;;;;;;;;;;;;25.96;52.15;99206.13;5033176;28;19971;-77
2023/09/02 22:50:25;;;;;;;;;;;;;;;25.94;52.05;99194.81;5032730;28;20342;-77
2023/09/02 22:52:50;;;;;;;;;;;;;;;25.92;52.13;99198.72;5033698;28;19975;-76
2023/09/02 22:55:15;;;;;;;;;;;;;;;25.88;51.77;99194.84;5032360;28;19913;-76
2023/09/02 22:57:42;;;;;;;;;;;;;;;25.87;51.78;99196.69;5015762;28;19964;-77
2023/09/02 23:00:09;;;;;;;;;;;;;;;25.85;51.98;99197.91;5015872;28;19913;-76
2023/09/02 23:02:34;;;;;;;;;;;;;;;25.82;51.89;99205.34;5032248;28;20373;-76
2023/09/02 23:04:59;;;;;;;;;;;;;;;25.80;51.54;99206.56;5033465;28;19917;-77
2023/09/02 23:07:25;;;;;;;;;;;;;;;25.77;51.52;99205.09;5032248;28;19913;-76
2023/09/02 23:09:50;;;;;;;;;;;;;;;25.76;51.19;99206.16;5032234;28;19917;-76
2023/09/02 23:12:15;;;;;;;;;;;;;;;25.74;51.23;99208.19;5015346;28;19913;-77
2023/09/02 23:14:41;;;;;;;;;;;;;;;25.72;50.78;99204.09;5015795;28;19913;-77
2023/09/02 23:17:06;;;;;;;;;;;;;;;25.68;50.43;99203.69;5015528;28;19963;-77
2023/09/02 23:19:31;;;;;;;;;;;;;;;25.65;50.16;99201.41;5032211;28;19917;-77
2023/09/02 23:21:57;;;;;;;;;;;;;;;25.62;50.24;99207.97;5032161;28;19920;-77
2023/09/02 23:24:22;;;;;;;;;;;;;;;25.60;49.85;99210.03;5031959;28;19936;-77
2023/09/02 23:26:48;;;;;;;;;;;;;;;25.57;49.80;99204.25;5031957;28;19967;-77
2023/09/02 23:29:14;;;;;;;;;;;;;;;25.56;49.98;99205.28;5032435;28;20357;-77
2023/09/02 23:31:39;;;;;;;;;;;;;;;25.55;49.98;99200.97;5014911;28;19952;-77
2023/09/02 23:34:04;;;;;;;;;;;;;;;25.53;49.86;99203.03;5031919;28;19917;-83
2023/09/02 23:36:29;;;;;;;;;;;;;;;25.51;49.91;99200.56;5015256;28;19928;-76
2023/09/02 23:38:55;;;;;;;;;;;;;;;25.50;49.88;99198.09;5031539;28;19913;-76
2023/09/02 23:41:20;;;;;;;;;;;;;;;25.48;49.75;99197.47;5031479;28;19936;-76
2023/09/02 23:43:45;;;;;;;;;;;;;;;25.46;49.58;99201.16;4998975;28;19963;-76
2023/09/02 23:46:18;;;;;;;;;;;;;;;25.47;49.49;99193.97;5033104;28;20004;-76
2023/09/02 23:48:44;;;;;;;;;;;;;;;25.44;49.43;99191.69;5015802;28;19984;-76
2023/09/02 23:51:10;;;;;;;;;;;;;;;25.44;49.06;99186.34;5031465;28;20371;-75
2023/09/02 23:53:35;;;;;;;;;;;;;;;25.39;49.33;99181.59;5014784;28;20360;-76
2023/09/02 23:56:01;;;;;;;;;;;;;;;25.37;49.14;99189.00;5014854;28;19924;-75
2023/09/02 23:58:26;;;;;;;;;;;;;;;25.35;49.01;99192.91;5032096;28;19913;-75
